sensor_id;sensor_type;location;lat;lon;timestamp;temperature;humidity
22974;DHT22;11653;50.848;4.584;2022-12-08T00:00:50;6.30;99.90
22974;DHT22;11653;50.848;4.584;2022-12-08T00:03:16;6.20;99.90
22974;DHT22;11653;50.848;4.584;2022-12-08T00:05:46;6.20;99.90
22974;DHT22;11653;50.848;4.584;2022-12-08T00:08:30;6.10;99.90
22974;DHT22;11653;50.848;4.584;2022-12-08T00:11:16;6.00;99.90
22974;DHT22;11653;50.848;4.584;2022-12-08T00:13:42;5.90;99.90
22974;DHT22;11653;50.848;4.584;2022-12-08T00:16:08;5.90;99.90
22974;DHT22;11653;50.848;4.584;2022-12-08T00:18:34;6.00;99.90
22974;DHT22;11653;50.848;4.584;2022-12-08T00:20:59;6.00;99.90
22974;DHT22;11653;50.848;4.584;2022-12-08T00:23:25;6.00;99.90
22974;DHT22;11653;50.848;4.584;2022-12-08T00:25:51;5.90;99.90
22974;DHT22;11653;50.848;4.584;2022-12-08T00:28:17;5.90;99.90
22974;DHT22;11653;50.848;4.584;2022-12-08T00:30:43;5.90;99.90
22974;DHT22;11653;50.848;4.584;2022-12-08T00:33:09;5.80;99.90
22974;DHT22;11653;50.848;4.584;2022-12-08T00:35:35;5.90;99.90
22974;DHT22;11653;50.848;4.584;2022-12-08T00:38:01;5.90;99.90
22974;DHT22;11653;50.848;4.584;2022-12-08T00:40:26;5.80;99.90
22974;DHT22;11653;50.848;4.584;2022-12-08T00:42:52;5.80;99.90
22974;DHT22;11653;50.848;4.584;2022-12-08T00:45:18;5.80;99.90
22974;DHT22;11653;50.848;4.584;2022-12-08T00:47:43;5.70;99.90
22974;DHT22;11653;50.848;4.584;2022-12-08T00:50:10;5.70;99.90
22974;DHT22;11653;50.848;4.584;2022-12-08T00:52:36;5.60;99.90
22974;DHT22;11653;50.848;4.584;2022-12-08T00:55:02;5.60;99.90
22974;DHT22;11653;50.848;4.584;2022-12-08T00:57:28;5.60;99.90
22974;DHT22;11653;50.848;4.584;2022-12-08T00:59:54;5.50;99.90
22974;DHT22;11653;50.848;4.584;2022-12-08T01:02:20;5.50;99.90
22974;DHT22;11653;50.848;4.584;2022-12-08T01:04:45;5.40;99.90
22974;DHT22;11653;50.848;4.584;2022-12-08T01:07:11;5.40;99.90
22974;DHT22;11653;50.848;4.584;2022-12-08T01:09:37;5.50;99.90
22974;DHT22;11653;50.848;4.584;2022-12-08T01:12:03;5.50;99.90
22974;DHT22;11653;50.848;4.584;2022-12-08T01:14:29;5.50;99.90
22974;DHT22;11653;50.848;4.584;2022-12-08T01:16:54;5.50;99.90
22974;DHT22;11653;50.848;4.584;2022-12-08T01:19:20;5.50;99.90
22974;DHT22;11653;50.848;4.584;2022-12-08T01:21:45;5.50;99.90
22974;DHT22;11653;50.848;4.584;2022-12-08T01:24:13;5.50;99.90
22974;DHT22;11653;50.848;4.584;2022-12-08T01:26:39;5.50;99.90
22974;DHT22;11653;50.848;4.584;2022-12-08T01:29:05;5.40;99.90
22974;DHT22;11653;50.848;4.584;2022-12-08T01:31:31;5.50;99.90
22974;DHT22;11653;50.848;4.584;2022-12-08T01:33:57;5.50;99.90
22974;DHT22;11653;50.848;4.584;2022-12-08T01:36:26;5.40;99.90
22974;DHT22;11653;50.848;4.584;2022-12-08T01:38:52;5.30;99.90
22974;DHT22;11653;50.848;4.584;2022-12-08T01:41:21;5.30;99.90
22974;DHT22;11653;50.848;4.584;2022-12-08T01:46:38;5.20;99.90
22974;DHT22;11653;50.848;4.584;2022-12-08T01:49:19;5.20;99.90
22974;DHT22;11653;50.848;4.584;2022-12-08T01:54:43;5.10;99.90
22974;DHT22;11653;50.848;4.584;2022-12-08T01:57:17;5.00;99.90
22974;DHT22;11653;50.848;4.584;2022-12-08T01:59:48;5.00;99.90
22974;DHT22;11653;50.848;4.584;2022-12-08T02:02:17;5.00;99.90
22974;DHT22;11653;50.848;4.584;2022-12-08T02:04:42;5.00;99.90
22974;DHT22;11653;50.848;4.584;2022-12-08T02:07:09;5.00;99.90
22974;DHT22;11653;50.848;4.584;2022-12-08T02:09:37;4.90;99.90
22974;DHT22;11653;50.848;4.584;2022-12-08T02:12:04;4.90;99.90
22974;DHT22;11653;50.848;4.584;2022-12-08T02:14:30;4.90;99.90
22974;DHT22;11653;50.848;4.584;2022-12-08T02:17:21;5.00;99.90
22974;DHT22;11653;50.848;4.584;2022-12-08T02:28:50;5.00;99.90
22974;DHT22;11653;50.848;4.584;2022-12-08T02:34:28;4.90;99.90
22974;DHT22;11653;50.848;4.584;2022-12-08T02:36:58;4.90;99.90
22974;DHT22;11653;50.848;4.584;2022-12-08T02:39:57;4.90;99.90
22974;DHT22;11653;50.848;4.584;2022-12-08T02:42:31;4.80;99.90
22974;DHT22;11653;50.848;4.584;2022-12-08T02:45:06;4.80;99.90
22974;DHT22;11653;50.848;4.584;2022-12-08T02:47:34;4.80;99.90
22974;DHT22;11653;50.848;4.584;2022-12-08T02:50:00;4.70;99.90
22974;DHT22;11653;50.848;4.584;2022-12-08T02:55:23;4.70;99.90
22974;DHT22;11653;50.848;4.584;2022-12-08T03:00:19;4.60;99.90
22974;DHT22;11653;50.848;4.584;2022-12-08T03:03:09;4.60;99.90
22974;DHT22;11653;50.848;4.584;2022-12-08T03:06:00;4.60;99.90
22974;DHT22;11653;50.848;4.584;2022-12-08T03:08:34;4.60;99.90
22974;DHT22;11653;50.848;4.584;2022-12-08T03:11:13;4.60;99.90
22974;DHT22;11653;50.848;4.584;2022-12-08T03:13:47;4.70;99.90
22974;DHT22;11653;50.848;4.584;2022-12-08T03:16:19;4.70;99.90
22974;DHT22;11653;50.848;4.584;2022-12-08T03:18:53;4.70;99.90
22974;DHT22;11653;50.848;4.584;2022-12-08T03:21:21;4.70;99.90
22974;DHT22;11653;50.848;4.584;2022-12-08T03:23:50;4.60;99.90
22974;DHT22;11653;50.848;4.584;2022-12-08T03:26:39;4.60;99.90
22974;DHT22;11653;50.848;4.584;2022-12-08T03:29:06;4.50;99.90
22974;DHT22;11653;50.848;4.584;2022-12-08T03:31:40;4.50;99.90
22974;DHT22;11653;50.848;4.584;2022-12-08T03:34:09;4.40;99.90
22974;DHT22;11653;50.848;4.584;2022-12-08T03:36:35;4.50;99.90
22974;DHT22;11653;50.848;4.584;2022-12-08T03:39:00;4.50;99.90
22974;DHT22;11653;50.848;4.584;2022-12-08T03:41:26;4.50;99.90
22974;DHT22;11653;50.848;4.584;2022-12-08T03:43:54;4.60;99.90
22974;DHT22;11653;50.848;4.584;2022-12-08T03:46:23;4.60;99.90
22974;DHT22;11653;50.848;4.584;2022-12-08T03:48:49;4.70;99.90
22974;DHT22;11653;50.848;4.584;2022-12-08T03:51:15;4.60;99.90
22974;DHT22;11653;50.848;4.584;2022-12-08T03:53:42;4.60;99.90
22974;DHT22;11653;50.848;4.584;2022-12-08T03:56:15;4.70;99.90
22974;DHT22;11653;50.848;4.584;2022-12-08T03:58:42;4.70;99.90
22974;DHT22;11653;50.848;4.584;2022-12-08T04:01:08;4.70;99.90
22974;DHT22;11653;50.848;4.584;2022-12-08T04:03:33;4.70;99.90
22974;DHT22;11653;50.848;4.584;2022-12-08T04:05:59;4.70;99.90
22974;DHT22;11653;50.848;4.584;2022-12-08T04:08:25;4.70;99.90
22974;DHT22;11653;50.848;4.584;2022-12-08T04:10:50;4.70;99.90
22974;DHT22;11653;50.848;4.584;2022-12-08T04:13:16;4.70;99.90
22974;DHT22;11653;50.848;4.584;2022-12-08T04:15:46;4.70;99.90
22974;DHT22;11653;50.848;4.584;2022-12-08T04:18:13;4.80;99.90
22974;DHT22;11653;50.848;4.584;2022-12-08T04:20:40;4.80;99.90
22974;DHT22;11653;50.848;4.584;2022-12-08T04:23:06;4.70;99.90
22974;DHT22;11653;50.848;4.584;2022-12-08T04:25:32;4.70;99.90
22974;DHT22;11653;50.848;4.584;2022-12-08T04:27:58;4.70;99.90
22974;DHT22;11653;50.848;4.584;2022-12-08T04:30:24;4.60;99.90
22974;DHT22;11653;50.848;4.584;2022-12-08T04:32:49;4.60;99.90
22974;DHT22;11653;50.848;4.584;2022-12-08T04:35:16;4.60;99.90
22974;DHT22;11653;50.848;4.584;2022-12-08T04:37:42;4.60;99.90
22974;DHT22;11653;50.848;4.584;2022-12-08T04:40:09;4.60;99.90
22974;DHT22;11653;50.848;4.584;2022-12-08T04:42:36;4.50;99.90
22974;DHT22;11653;50.848;4.584;2022-12-08T04:45:02;4.50;99.90
22974;DHT22;11653;50.848;4.584;2022-12-08T04:47:28;4.50;99.90
22974;DHT22;11653;50.848;4.584;2022-12-08T04:49:53;4.50;99.90
22974;DHT22;11653;50.848;4.584;2022-12-08T04:52:20;4.50;99.90
22974;DHT22;11653;50.848;4.584;2022-12-08T04:54:45;4.50;99.90
22974;DHT22;11653;50.848;4.584;2022-12-08T04:57:11;4.50;99.90
22974;DHT22;11653;50.848;4.584;2022-12-08T04:59:37;4.50;99.90
22974;DHT22;11653;50.848;4.584;2022-12-08T05:02:03;4.40;99.90
22974;DHT22;11653;50.848;4.584;2022-12-08T05:04:28;4.40;99.90
22974;DHT22;11653;50.848;4.584;2022-12-08T05:06:54;4.40;99.90
22974;DHT22;11653;50.848;4.584;2022-12-08T05:09:19;4.40;99.90
22974;DHT22;11653;50.848;4.584;2022-12-08T05:11:45;4.40;99.90
22974;DHT22;11653;50.848;4.584;2022-12-08T05:14:12;4.40;99.90
22974;DHT22;11653;50.848;4.584;2022-12-08T05:16:37;4.50;99.90
22974;DHT22;11653;50.848;4.584;2022-12-08T05:19:04;4.40;99.90
22974;DHT22;11653;50.848;4.584;2022-12-08T05:21:30;4.50;99.90
22974;DHT22;11653;50.848;4.584;2022-12-08T05:23:55;4.60;99.90
22974;DHT22;11653;50.848;4.584;2022-12-08T05:26:21;4.60;99.90
22974;DHT22;11653;50.848;4.584;2022-12-08T05:28:47;4.70;99.90
22974;DHT22;11653;50.848;4.584;2022-12-08T05:31:14;4.60;99.90
22974;DHT22;11653;50.848;4.584;2022-12-08T05:33:40;4.60;99.90
22974;DHT22;11653;50.848;4.584;2022-12-08T05:36:07;4.50;99.90
22974;DHT22;11653;50.848;4.584;2022-12-08T05:38:33;4.40;99.90
22974;DHT22;11653;50.848;4.584;2022-12-08T05:40:58;4.40;99.90
22974;DHT22;11653;50.848;4.584;2022-12-08T05:43:24;4.40;99.90
22974;DHT22;11653;50.848;4.584;2022-12-08T05:45:50;4.50;99.90
22974;DHT22;11653;50.848;4.584;2022-12-08T05:48:15;4.40;99.90
22974;DHT22;11653;50.848;4.584;2022-12-08T05:50:48;4.50;99.90
22974;DHT22;11653;50.848;4.584;2022-12-08T05:53:15;4.50;99.90
22974;DHT22;11653;50.848;4.584;2022-12-08T05:55:41;4.40;99.90
22974;DHT22;11653;50.848;4.584;2022-12-08T05:58:11;4.40;99.90
22974;DHT22;11653;50.848;4.584;2022-12-08T06:00:37;4.40;99.90
22974;DHT22;11653;50.848;4.584;2022-12-08T06:03:02;4.50;99.90
22974;DHT22;11653;50.848;4.584;2022-12-08T06:05:28;4.50;99.90
22974;DHT22;11653;50.848;4.584;2022-12-08T06:07:54;4.60;99.90
22974;DHT22;11653;50.848;4.584;2022-12-08T06:10:19;4.60;99.90
22974;DHT22;11653;50.848;4.584;2022-12-08T06:12:45;4.70;99.90
22974;DHT22;11653;50.848;4.584;2022-12-08T06:15:10;4.70;99.90
22974;DHT22;11653;50.848;4.584;2022-12-08T06:17:36;4.70;99.90
22974;DHT22;11653;50.848;4.584;2022-12-08T06:20:02;4.60;99.90
22974;DHT22;11653;50.848;4.584;2022-12-08T06:22:28;4.60;99.90
22974;DHT22;11653;50.848;4.584;2022-12-08T06:24:54;4.60;99.90
22974;DHT22;11653;50.848;4.584;2022-12-08T06:27:20;4.60;99.90
22974;DHT22;11653;50.848;4.584;2022-12-08T06:29:45;4.60;99.90
22974;DHT22;11653;50.848;4.584;2022-12-08T06:32:11;4.50;99.90
22974;DHT22;11653;50.848;4.584;2022-12-08T06:34:37;4.50;99.90
22974;DHT22;11653;50.848;4.584;2022-12-08T06:37:02;4.60;99.90
22974;DHT22;11653;50.848;4.584;2022-12-08T06:39:28;4.50;99.90
22974;DHT22;11653;50.848;4.584;2022-12-08T06:41:54;4.60;99.90
22974;DHT22;11653;50.848;4.584;2022-12-08T06:44:39;4.60;99.90
22974;DHT22;11653;50.848;4.584;2022-12-08T06:47:05;4.60;99.90
22974;DHT22;11653;50.848;4.584;2022-12-08T06:49:31;4.50;99.90
22974;DHT22;11653;50.848;4.584;2022-12-08T06:51:57;4.40;99.90
22974;DHT22;11653;50.848;4.584;2022-12-08T06:54:22;4.40;99.90
22974;DHT22;11653;50.848;4.584;2022-12-08T06:56:48;4.50;99.90
22974;DHT22;11653;50.848;4.584;2022-12-08T06:59:14;4.50;99.90
22974;DHT22;11653;50.848;4.584;2022-12-08T07:01:39;4.50;99.90
22974;DHT22;11653;50.848;4.584;2022-12-08T07:04:05;4.60;99.90
22974;DHT22;11653;50.848;4.584;2022-12-08T07:06:31;4.60;99.90
22974;DHT22;11653;50.848;4.584;2022-12-08T07:08:56;4.70;99.90
22974;DHT22;11653;50.848;4.584;2022-12-08T07:11:22;4.60;99.90
22974;DHT22;11653;50.848;4.584;2022-12-08T07:13:48;4.60;99.90
22974;DHT22;11653;50.848;4.584;2022-12-08T07:16:14;4.60;99.90
22974;DHT22;11653;50.848;4.584;2022-12-08T07:18:39;4.70;99.90
22974;DHT22;11653;50.848;4.584;2022-12-08T07:21:09;4.80;99.90
22974;DHT22;11653;50.848;4.584;2022-12-08T07:23:36;4.70;99.90
22974;DHT22;11653;50.848;4.584;2022-12-08T07:26:04;4.70;99.90
22974;DHT22;11653;50.848;4.584;2022-12-08T07:28:35;4.60;99.90
22974;DHT22;11653;50.848;4.584;2022-12-08T07:31:02;4.60;99.90
22974;DHT22;11653;50.848;4.584;2022-12-08T07:33:28;4.70;99.90
22974;DHT22;11653;50.848;4.584;2022-12-08T07:35:55;4.70;99.90
22974;DHT22;11653;50.848;4.584;2022-12-08T07:38:21;4.60;99.90
22974;DHT22;11653;50.848;4.584;2022-12-08T07:40:47;4.70;99.90
22974;DHT22;11653;50.848;4.584;2022-12-08T07:43:13;4.80;99.90
22974;DHT22;11653;50.848;4.584;2022-12-08T07:45:39;4.80;99.90
22974;DHT22;11653;50.848;4.584;2022-12-08T07:48:05;4.80;99.90
22974;DHT22;11653;50.848;4.584;2022-12-08T07:50:31;4.70;99.90
22974;DHT22;11653;50.848;4.584;2022-12-08T07:52:57;4.70;99.90
22974;DHT22;11653;50.848;4.584;2022-12-08T07:55:23;4.70;99.90
22974;DHT22;11653;50.848;4.584;2022-12-08T07:57:49;4.80;99.90
22974;DHT22;11653;50.848;4.584;2022-12-08T08:00:15;4.80;99.90
22974;DHT22;11653;50.848;4.584;2022-12-08T08:02:41;4.70;99.90
22974;DHT22;11653;50.848;4.584;2022-12-08T08:05:07;4.80;99.90
22974;DHT22;11653;50.848;4.584;2022-12-08T08:07:33;4.80;99.90
22974;DHT22;11653;50.848;4.584;2022-12-08T08:09:59;4.80;99.90
22974;DHT22;11653;50.848;4.584;2022-12-08T08:12:25;4.80;99.90
22974;DHT22;11653;50.848;4.584;2022-12-08T08:14:50;4.70;99.90
22974;DHT22;11653;50.848;4.584;2022-12-08T08:17:16;4.80;99.90
22974;DHT22;11653;50.848;4.584;2022-12-08T08:19:42;4.70;99.90
22974;DHT22;11653;50.848;4.584;2022-12-08T08:22:07;4.80;99.90
22974;DHT22;11653;50.848;4.584;2022-12-08T08:24:33;4.80;99.90
22974;DHT22;11653;50.848;4.584;2022-12-08T08:26:59;4.80;99.90
22974;DHT22;11653;50.848;4.584;2022-12-08T08:29:24;4.70;99.90
22974;DHT22;11653;50.848;4.584;2022-12-08T08:31:50;4.70;99.90
22974;DHT22;11653;50.848;4.584;2022-12-08T08:34:16;4.80;99.90
22974;DHT22;11653;50.848;4.584;2022-12-08T08:36:41;4.80;99.90
22974;DHT22;11653;50.848;4.584;2022-12-08T08:39:07;4.80;99.90
22974;DHT22;11653;50.848;4.584;2022-12-08T08:41:33;4.80;99.90
22974;DHT22;11653;50.848;4.584;2022-12-08T08:44:00;4.90;99.90
22974;DHT22;11653;50.848;4.584;2022-12-08T08:46:26;4.90;99.90
22974;DHT22;11653;50.848;4.584;2022-12-08T08:48:51;4.90;99.90
22974;DHT22;11653;50.848;4.584;2022-12-08T08:51:17;5.00;99.90
22974;DHT22;11653;50.848;4.584;2022-12-08T08:53:43;5.00;99.90
22974;DHT22;11653;50.848;4.584;2022-12-08T08:56:14;5.00;99.90
22974;DHT22;11653;50.848;4.584;2022-12-08T08:58:40;5.10;99.90
22974;DHT22;11653;50.848;4.584;2022-12-08T09:01:06;5.10;99.90
22974;DHT22;11653;50.848;4.584;2022-12-08T09:03:32;5.10;99.90
22974;DHT22;11653;50.848;4.584;2022-12-08T09:05:58;5.10;99.90
22974;DHT22;11653;50.848;4.584;2022-12-08T09:08:24;5.10;99.90
22974;DHT22;11653;50.848;4.584;2022-12-08T09:10:50;5.10;99.90
22974;DHT22;11653;50.848;4.584;2022-12-08T09:13:16;5.10;99.90
22974;DHT22;11653;50.848;4.584;2022-12-08T09:15:42;5.10;99.90
22974;DHT22;11653;50.848;4.584;2022-12-08T09:18:07;5.10;99.90
22974;DHT22;11653;50.848;4.584;2022-12-08T09:20:34;5.20;99.90
22974;DHT22;11653;50.848;4.584;2022-12-08T09:23:00;5.20;99.90
22974;DHT22;11653;50.848;4.584;2022-12-08T09:25:26;5.30;99.90
22974;DHT22;11653;50.848;4.584;2022-12-08T09:27:52;5.30;99.90
22974;DHT22;11653;50.848;4.584;2022-12-08T09:30:18;5.30;99.90
22974;DHT22;11653;50.848;4.584;2022-12-08T09:32:43;5.40;99.90
22974;DHT22;11653;50.848;4.584;2022-12-08T09:35:09;5.50;99.90
22974;DHT22;11653;50.848;4.584;2022-12-08T09:37:35;5.50;99.90
22974;DHT22;11653;50.848;4.584;2022-12-08T09:40:00;5.40;99.90
22974;DHT22;11653;50.848;4.584;2022-12-08T09:45:11;5.50;99.90
22974;DHT22;11653;50.848;4.584;2022-12-08T09:48:09;5.50;99.90
22974;DHT22;11653;50.848;4.584;2022-12-08T09:50:54;5.60;99.90
22974;DHT22;11653;50.848;4.584;2022-12-08T09:53:24;5.60;99.90
22974;DHT22;11653;50.848;4.584;2022-12-08T09:56:11;5.60;99.90
22974;DHT22;11653;50.848;4.584;2022-12-08T09:59:00;5.60;99.90
22974;DHT22;11653;50.848;4.584;2022-12-08T10:01:32;5.50;99.90
22974;DHT22;11653;50.848;4.584;2022-12-08T10:03:59;5.40;99.90
22974;DHT22;11653;50.848;4.584;2022-12-08T10:06:40;5.40;99.90
22974;DHT22;11653;50.848;4.584;2022-12-08T10:09:30;5.40;99.90
22974;DHT22;11653;50.848;4.584;2022-12-08T10:12:21;5.50;99.90
22974;DHT22;11653;50.848;4.584;2022-12-08T10:17:54;5.40;99.90
22974;DHT22;11653;50.848;4.584;2022-12-08T10:20:23;5.40;99.90
22974;DHT22;11653;50.848;4.584;2022-12-08T10:23:00;5.50;99.90
22974;DHT22;11653;50.848;4.584;2022-12-08T10:25:47;5.50;99.90
22974;DHT22;11653;50.848;4.584;2022-12-08T10:28:13;5.50;99.90
22974;DHT22;11653;50.848;4.584;2022-12-08T10:30:40;5.60;99.90
22974;DHT22;11653;50.848;4.584;2022-12-08T10:33:16;5.70;99.90
22974;DHT22;11653;50.848;4.584;2022-12-08T10:35:54;5.90;99.90
22974;DHT22;11653;50.848;4.584;2022-12-08T10:40:59;6.30;99.90
22974;DHT22;11653;50.848;4.584;2022-12-08T10:43:27;6.30;99.90
22974;DHT22;11653;50.848;4.584;2022-12-08T10:45:53;6.30;99.90
22974;DHT22;11653;50.848;4.584;2022-12-08T10:48:23;6.20;99.90
22974;DHT22;11653;50.848;4.584;2022-12-08T10:50:54;6.20;99.90
22974;DHT22;11653;50.848;4.584;2022-12-08T10:53:30;6.20;99.90
22974;DHT22;11653;50.848;4.584;2022-12-08T10:58:40;6.20;99.90
22974;DHT22;11653;50.848;4.584;2022-12-08T11:01:20;6.20;99.90
22974;DHT22;11653;50.848;4.584;2022-12-08T11:03:51;6.30;99.90
22974;DHT22;11653;50.848;4.584;2022-12-08T11:06:38;6.40;99.90
22974;DHT22;11653;50.848;4.584;2022-12-08T11:09:21;6.40;99.90
22974;DHT22;11653;50.848;4.584;2022-12-08T11:14:28;6.60;99.90
22974;DHT22;11653;50.848;4.584;2022-12-08T11:19:37;7.40;99.90
22974;DHT22;11653;50.848;4.584;2022-12-08T11:22:34;7.90;99.90
22974;DHT22;11653;50.848;4.584;2022-12-08T11:25:09;8.10;99.90
22974;DHT22;11653;50.848;4.584;2022-12-08T11:27:40;8.40;99.90
22974;DHT22;11653;50.848;4.584;2022-12-08T11:30:22;9.00;99.90
22974;DHT22;11653;50.848;4.584;2022-12-08T11:32:57;9.70;99.90
22974;DHT22;11653;50.848;4.584;2022-12-08T11:35:32;10.20;99.90
22974;DHT22;11653;50.848;4.584;2022-12-08T11:38:11;10.50;99.90
22974;DHT22;11653;50.848;4.584;2022-12-08T11:40:39;10.80;99.90
22974;DHT22;11653;50.848;4.584;2022-12-08T11:45:42;10.70;99.90
22974;DHT22;11653;50.848;4.584;2022-12-08T11:50:53;10.40;99.90
22974;DHT22;11653;50.848;4.584;2022-12-08T11:53:28;10.70;99.90
22974;DHT22;11653;50.848;4.584;2022-12-08T11:55:58;11.40;99.90
22974;DHT22;11653;50.848;4.584;2022-12-08T12:01:01;12.00;99.90
22974;DHT22;11653;50.848;4.584;2022-12-08T12:03:32;12.20;99.90
22974;DHT22;11653;50.848;4.584;2022-12-08T12:08:58;12.10;99.90
22974;DHT22;11653;50.848;4.584;2022-12-08T12:11:37;11.90;99.90
22974;DHT22;11653;50.848;4.584;2022-12-08T12:17:50;10.90;99.90
22974;DHT22;11653;50.848;4.584;2022-12-08T12:20:22;10.70;99.90
22974;DHT22;11653;50.848;4.584;2022-12-08T12:23:35;10.40;99.90
22974;DHT22;11653;50.848;4.584;2022-12-08T12:26:18;10.10;99.90
22974;DHT22;11653;50.848;4.584;2022-12-08T12:31:25;9.50;99.90
22974;DHT22;11653;50.848;4.584;2022-12-08T12:33:56;9.20;99.90
22974;DHT22;11653;50.848;4.584;2022-12-08T12:36:29;9.00;99.90
22974;DHT22;11653;50.848;4.584;2022-12-08T12:38:57;8.50;99.90
22974;DHT22;11653;50.848;4.584;2022-12-08T12:41:52;8.20;99.90
22974;DHT22;11653;50.848;4.584;2022-12-08T12:57:52;8.30;99.90
22974;DHT22;11653;50.848;4.584;2022-12-08T13:00:23;8.30;99.90
22974;DHT22;11653;50.848;4.584;2022-12-08T13:02:51;8.30;99.90
22974;DHT22;11653;50.848;4.584;2022-12-08T13:05:21;8.20;99.90
22974;DHT22;11653;50.848;4.584;2022-12-08T13:08:18;8.00;99.90
22974;DHT22;11653;50.848;4.584;2022-12-08T13:10:59;7.70;99.90
22974;DHT22;11653;50.848;4.584;2022-12-08T13:13:26;7.70;99.90
22974;DHT22;11653;50.848;4.584;2022-12-08T13:16:04;7.60;99.90
22974;DHT22;11653;50.848;4.584;2022-12-08T13:18:40;7.70;99.90
22974;DHT22;11653;50.848;4.584;2022-12-08T13:23:45;7.80;99.90
22974;DHT22;11653;50.848;4.584;2022-12-08T13:26:20;7.90;99.90
22974;DHT22;11653;50.848;4.584;2022-12-08T13:45:04;7.50;99.90
22974;DHT22;11653;50.848;4.584;2022-12-08T13:47:55;7.40;99.90
22974;DHT22;11653;50.848;4.584;2022-12-08T13:50:28;7.30;99.90
22974;DHT22;11653;50.848;4.584;2022-12-08T13:52:58;7.30;99.90
22974;DHT22;11653;50.848;4.584;2022-12-08T13:55:44;7.10;99.90
22974;DHT22;11653;50.848;4.584;2022-12-08T14:03:24;6.90;99.90
22974;DHT22;11653;50.848;4.584;2022-12-08T14:05:50;7.00;99.90
22974;DHT22;11653;50.848;4.584;2022-12-08T14:08:31;7.00;99.90
22974;DHT22;11653;50.848;4.584;2022-12-08T14:11:01;7.00;99.90
22974;DHT22;11653;50.848;4.584;2022-12-08T14:13:29;7.00;99.90
22974;DHT22;11653;50.848;4.584;2022-12-08T14:15:55;6.90;99.90
22974;DHT22;11653;50.848;4.584;2022-12-08T14:18:25;6.80;99.90
22974;DHT22;11653;50.848;4.584;2022-12-08T14:21:05;6.70;99.90
22974;DHT22;11653;50.848;4.584;2022-12-08T14:23:35;6.70;99.90
22974;DHT22;11653;50.848;4.584;2022-12-08T14:26:04;6.60;99.90
22974;DHT22;11653;50.848;4.584;2022-12-08T14:28:32;6.70;99.90
22974;DHT22;11653;50.848;4.584;2022-12-08T14:30:58;6.70;99.90
22974;DHT22;11653;50.848;4.584;2022-12-08T14:33:24;6.70;99.90
22974;DHT22;11653;50.848;4.584;2022-12-08T14:35:54;6.80;99.90
22974;DHT22;11653;50.848;4.584;2022-12-08T14:38:21;6.90;99.90
22974;DHT22;11653;50.848;4.584;2022-12-08T14:43:29;6.60;99.90
22974;DHT22;11653;50.848;4.584;2022-12-08T14:45:59;6.60;99.90
22974;DHT22;11653;50.848;4.584;2022-12-08T14:53:54;6.90;99.90
22974;DHT22;11653;50.848;4.584;2022-12-08T14:56:23;6.90;99.90
22974;DHT22;11653;50.848;4.584;2022-12-08T14:59:24;6.90;99.90
22974;DHT22;11653;50.848;4.584;2022-12-08T15:01:48;6.90;99.90
22974;DHT22;11653;50.848;4.584;2022-12-08T15:04:22;6.90;99.90
22974;DHT22;11653;50.848;4.584;2022-12-08T15:09:39;6.90;99.90
22974;DHT22;11653;50.848;4.584;2022-12-08T15:14:40;6.90;99.90
22974;DHT22;11653;50.848;4.584;2022-12-08T15:19:57;7.20;99.90
22974;DHT22;11653;50.848;4.584;2022-12-08T15:22:24;7.10;99.90
22974;DHT22;11653;50.848;4.584;2022-12-08T15:24:51;7.10;99.90
22974;DHT22;11653;50.848;4.584;2022-12-08T15:27:19;7.00;99.90
22974;DHT22;11653;50.848;4.584;2022-12-08T15:29:46;6.90;99.90
22974;DHT22;11653;50.848;4.584;2022-12-08T15:32:12;6.90;99.90
22974;DHT22;11653;50.848;4.584;2022-12-08T15:34:41;6.80;99.90
22974;DHT22;11653;50.848;4.584;2022-12-08T15:37:19;6.80;99.90
22974;DHT22;11653;50.848;4.584;2022-12-08T15:39:45;6.90;99.90
22974;DHT22;11653;50.848;4.584;2022-12-08T15:42:11;6.90;99.90
22974;DHT22;11653;50.848;4.584;2022-12-08T15:44:37;6.80;99.90
22974;DHT22;11653;50.848;4.584;2022-12-08T15:47:03;6.80;99.90
22974;DHT22;11653;50.848;4.584;2022-12-08T15:49:29;6.70;99.90
22974;DHT22;11653;50.848;4.584;2022-12-08T15:51:55;6.70;99.90
22974;DHT22;11653;50.848;4.584;2022-12-08T15:54:21;6.80;99.90
22974;DHT22;11653;50.848;4.584;2022-12-08T15:56:53;6.90;99.90
22974;DHT22;11653;50.848;4.584;2022-12-08T15:59:21;6.80;99.90
22974;DHT22;11653;50.848;4.584;2022-12-08T16:01:47;6.70;99.90
22974;DHT22;11653;50.848;4.584;2022-12-08T16:04:20;6.70;99.90
22974;DHT22;11653;50.848;4.584;2022-12-08T16:06:49;6.70;99.90
22974;DHT22;11653;50.848;4.584;2022-12-08T16:11:46;6.60;99.90
22974;DHT22;11653;50.848;4.584;2022-12-08T16:14:30;6.60;99.90
22974;DHT22;11653;50.848;4.584;2022-12-08T16:16:56;6.60;99.90
22974;DHT22;11653;50.848;4.584;2022-12-08T16:19:21;6.60;99.90
22974;DHT22;11653;50.848;4.584;2022-12-08T16:21:47;6.60;99.90
22974;DHT22;11653;50.848;4.584;2022-12-08T16:24:13;6.60;99.90
22974;DHT22;11653;50.848;4.584;2022-12-08T16:26:39;6.60;99.90
22974;DHT22;11653;50.848;4.584;2022-12-08T16:29:05;6.50;99.90
22974;DHT22;11653;50.848;4.584;2022-12-08T16:31:31;6.60;99.90
22974;DHT22;11653;50.848;4.584;2022-12-08T16:33:57;6.50;99.90
22974;DHT22;11653;50.848;4.584;2022-12-08T16:36:22;6.50;99.90
22974;DHT22;11653;50.848;4.584;2022-12-08T16:38:48;6.50;99.90
22974;DHT22;11653;50.848;4.584;2022-12-08T16:41:15;6.50;99.90
22974;DHT22;11653;50.848;4.584;2022-12-08T16:44:04;6.40;99.90
22974;DHT22;11653;50.848;4.584;2022-12-08T16:46:30;6.40;99.90
22974;DHT22;11653;50.848;4.584;2022-12-08T16:48:57;6.40;99.90
22974;DHT22;11653;50.848;4.584;2022-12-08T16:51:24;6.30;99.90
22974;DHT22;11653;50.848;4.584;2022-12-08T16:53:50;6.20;99.90
22974;DHT22;11653;50.848;4.584;2022-12-08T16:56:17;6.10;99.90
22974;DHT22;11653;50.848;4.584;2022-12-08T16:58:46;6.00;99.90
22974;DHT22;11653;50.848;4.584;2022-12-08T17:01:13;5.90;99.90
22974;DHT22;11653;50.848;4.584;2022-12-08T17:03:40;5.90;99.90
22974;DHT22;11653;50.848;4.584;2022-12-08T17:06:10;5.80;99.90
22974;DHT22;11653;50.848;4.584;2022-12-08T17:08:37;5.80;99.90
22974;DHT22;11653;50.848;4.584;2022-12-08T17:11:04;5.70;99.90
22974;DHT22;11653;50.848;4.584;2022-12-08T17:13:39;5.70;99.90
22974;DHT22;11653;50.848;4.584;2022-12-08T17:16:14;5.70;99.90
22974;DHT22;11653;50.848;4.584;2022-12-08T17:18:40;5.70;99.90
22974;DHT22;11653;50.848;4.584;2022-12-08T17:21:10;5.60;99.90
22974;DHT22;11653;50.848;4.584;2022-12-08T17:23:37;5.60;99.90
22974;DHT22;11653;50.848;4.584;2022-12-08T17:26:03;5.50;99.90
22974;DHT22;11653;50.848;4.584;2022-12-08T17:28:29;5.60;99.90
22974;DHT22;11653;50.848;4.584;2022-12-08T17:30:55;5.50;99.90
22974;DHT22;11653;50.848;4.584;2022-12-08T17:33:20;5.60;99.90
22974;DHT22;11653;50.848;4.584;2022-12-08T17:35:55;5.60;99.90
22974;DHT22;11653;50.848;4.584;2022-12-08T17:38:21;5.60;99.90
22974;DHT22;11653;50.848;4.584;2022-12-08T17:40:47;5.60;99.90
22974;DHT22;11653;50.848;4.584;2022-12-08T17:43:14;5.70;99.90
22974;DHT22;11653;50.848;4.584;2022-12-08T17:45:46;5.70;99.90
22974;DHT22;11653;50.848;4.584;2022-12-08T17:48:13;5.80;99.90
22974;DHT22;11653;50.848;4.584;2022-12-08T17:50:42;5.80;99.90